sensor_id;sensor_type;location;lat;lon;timestamp;P1;durP1;ratioP1;P2;durP2;ratioP2
20619;SDS011;10469;42.720;23.252;2024-02-21T01:35:42;8.93;;;7.07;;
20619;SDS011;10469;42.720;23.252;2024-02-21T01:38:08;9.35;;;7.18;;
20619;SDS011;10469;42.720;23.252;2024-02-21T01:40:33;8.45;;;6.78;;
20619;SDS011;10469;42.720;23.252;2024-02-21T01:42:59;9.38;;;6.78;;
20619;SDS011;10469;42.720;23.252;2024-02-21T01:45:24;8.93;;;6.97;;
20619;SDS011;10469;42.720;23.252;2024-02-21T01:47:50;9.00;;;6.60;;
20619;SDS011;10469;42.720;23.252;2024-02-21T01:50:15;7.07;;;5.95;;
20619;SDS011;10469;42.720;23.252;2024-02-21T01:52:42;7.25;;;6.10;;
20619;SDS011;10469;42.720;23.252;2024-02-21T01:55:10;7.80;;;6.35;;
20619;SDS011;10469;42.720;23.252;2024-02-21T01:57:38;11.32;;;7.00;;
20619;SDS011;10469;42.720;23.252;2024-02-21T02:00:05;9.05;;;7.40;;
20619;SDS011;10469;42.720;23.252;2024-02-21T02:02:32;14.27;;;8.60;;
20619;SDS011;10469;42.720;23.252;2024-02-21T02:04:57;9.93;;;7.68;;
20619;SDS011;10469;42.720;23.252;2024-02-21T02:07:24;10.23;;;7.30;;
20619;SDS011;10469;42.720;23.252;2024-02-21T02:09:50;8.70;;;7.70;;
20619;SDS011;10469;42.720;23.252;2024-02-21T02:12:15;8.82;;;7.15;;
20619;SDS011;10469;42.720;23.252;2024-02-21T02:14:41;10.00;;;7.88;;
20619;SDS011;10469;42.720;23.252;2024-02-21T02:17:06;10.30;;;7.65;;
20619;SDS011;10469;42.720;23.252;2024-02-21T02:19:32;10.15;;;7.88;;
20619;SDS011;10469;42.720;23.252;2024-02-21T02:22:09;11.63;;;8.00;;
20619;SDS011;10469;42.720;23.252;2024-02-21T02:24:38;10.75;;;7.72;;
20619;SDS011;10469;42.720;23.252;2024-02-21T02:27:04;10.20;;;8.13;;
20619;SDS011;10469;42.720;23.252;2024-02-21T02:29:31;9.90;;;8.38;;
20619;SDS011;10469;42.720;23.252;2024-02-21T02:31:57;11.93;;;8.48;;
20619;SDS011;10469;42.720;23.252;2024-02-21T02:34:23;11.13;;;8.57;;
20619;SDS011;10469;42.720;23.252;2024-02-21T02:36:48;12.30;;;9.43;;
20619;SDS011;10469;42.720;23.252;2024-02-21T02:39:14;10.73;;;8.38;;
20619;SDS011;10469;42.720;23.252;2024-02-21T02:41:39;11.38;;;9.13;;
20619;SDS011;10469;42.720;23.252;2024-02-21T02:44:05;11.23;;;8.93;;
20619;SDS011;10469;42.720;23.252;2024-02-21T02:46:30;13.10;;;9.15;;
20619;SDS011;10469;42.720;23.252;2024-02-21T02:48:56;12.50;;;9.50;;
20619;SDS011;10469;42.720;23.252;2024-02-21T02:51:21;11.98;;;9.88;;
20619;SDS011;10469;42.720;23.252;2024-02-21T02:53:47;13.15;;;9.43;;
20619;SDS011;10469;42.720;23.252;2024-02-21T02:56:16;11.30;;;9.13;;
20619;SDS011;10469;42.720;23.252;2024-02-21T02:58:42;12.00;;;9.30;;
20619;SDS011;10469;42.720;23.252;2024-02-21T03:01:08;12.85;;;9.75;;
20619;SDS011;10469;42.720;23.252;2024-02-21T03:03:34;12.30;;;9.45;;
20619;SDS011;10469;42.720;23.252;2024-02-21T03:05:59;11.13;;;8.90;;
20619;SDS011;10469;42.720;23.252;2024-02-21T03:08:26;10.90;;;9.15;;
20619;SDS011;10469;42.720;23.252;2024-02-21T03:10:51;13.45;;;10.15;;
20619;SDS011;10469;42.720;23.252;2024-02-21T03:13:17;11.65;;;9.13;;
20619;SDS011;10469;42.720;23.252;2024-02-21T03:15:42;11.88;;;9.85;;
20619;SDS011;10469;42.720;23.252;2024-02-21T03:18:07;12.13;;;9.63;;
20619;SDS011;10469;42.720;23.252;2024-02-21T03:20:33;14.27;;;9.68;;
20619;SDS011;10469;42.720;23.252;2024-02-21T03:22:58;13.82;;;9.70;;
20619;SDS011;10469;42.720;23.252;2024-02-21T03:25:24;12.57;;;9.38;;
20619;SDS011;10469;42.720;23.252;2024-02-21T03:27:49;12.52;;;10.07;;
20619;SDS011;10469;42.720;23.252;2024-02-21T03:30:15;14.50;;;10.45;;
20619;SDS011;10469;42.720;23.252;2024-02-21T03:32:40;13.55;;;9.75;;
20619;SDS011;10469;42.720;23.252;2024-02-21T03:35:06;13.90;;;10.20;;
20619;SDS011;10469;42.720;23.252;2024-02-21T03:37:32;13.88;;;10.45;;
20619;SDS011;10469;42.720;23.252;2024-02-21T03:39:57;13.52;;;9.98;;
20619;SDS011;10469;42.720;23.252;2024-02-21T03:42:23;15.40;;;9.65;;
20619;SDS011;10469;42.720;23.252;2024-02-21T03:44:48;13.75;;;9.90;;
20619;SDS011;10469;42.720;23.252;2024-02-21T03:47:13;12.82;;;9.52;;
20619;SDS011;10469;42.720;23.252;2024-02-21T03:49:39;13.45;;;9.88;;
20619;SDS011;10469;42.720;23.252;2024-02-21T03:52:04;12.98;;;10.38;;
20619;SDS011;10469;42.720;23.252;2024-02-21T03:54:30;14.52;;;11.20;;
20619;SDS011;10469;42.720;23.252;2024-02-21T03:56:56;12.15;;;9.88;;
20619;SDS011;10469;42.720;23.252;2024-02-21T03:59:22;14.75;;;9.88;;
20619;SDS011;10469;42.720;23.252;2024-02-21T04:01:51;12.85;;;9.68;;
20619;SDS011;10469;42.720;23.252;2024-02-21T04:04:17;13.40;;;10.32;;
20619;SDS011;10469;42.720;23.252;2024-02-21T04:06:49;12.73;;;9.65;;
20619;SDS011;10469;42.720;23.252;2024-02-21T04:09:15;12.32;;;9.55;;
20619;SDS011;10469;42.720;23.252;2024-02-21T04:11:41;14.57;;;10.27;;
20619;SDS011;10469;42.720;23.252;2024-02-21T04:14:06;12.27;;;10.38;;
20619;SDS011;10469;42.720;23.252;2024-02-21T04:16:32;15.85;;;10.70;;
20619;SDS011;10469;42.720;23.252;2024-02-21T04:18:58;14.23;;;11.75;;
20619;SDS011;10469;42.720;23.252;2024-02-21T04:21:23;12.82;;;11.15;;
20619;SDS011;10469;42.720;23.252;2024-02-21T04:23:49;15.50;;;12.38;;
20619;SDS011;10469;42.720;23.252;2024-02-21T04:26:14;16.00;;;11.32;;
20619;SDS011;10469;42.720;23.252;2024-02-21T04:28:40;14.77;;;11.07;;
20619;SDS011;10469;42.720;23.252;2024-02-21T04:31:05;14.65;;;11.05;;
20619;SDS011;10469;42.720;23.252;2024-02-21T04:33:31;14.60;;;11.00;;
20619;SDS011;10469;42.720;23.252;2024-02-21T04:35:56;13.60;;;10.95;;
20619;SDS011;10469;42.720;23.252;2024-02-21T04:38:23;15.52;;;10.93;;
20619;SDS011;10469;42.720;23.252;2024-02-21T04:40:49;14.35;;;10.60;;
20619;SDS011;10469;42.720;23.252;2024-02-21T04:43:14;15.23;;;11.07;;
20619;SDS011;10469;42.720;23.252;2024-02-21T04:45:40;14.60;;;11.35;;
20619;SDS011;10469;42.720;23.252;2024-02-21T04:48:05;17.65;;;12.38;;
20619;SDS011;10469;42.720;23.252;2024-02-21T04:50:31;15.20;;;11.82;;
20619;SDS011;10469;42.720;23.252;2024-02-21T04:52:57;14.27;;;11.32;;
20619;SDS011;10469;42.720;23.252;2024-02-21T04:55:22;16.08;;;12.63;;
20619;SDS011;10469;42.720;23.252;2024-02-21T04:57:48;15.65;;;11.65;;
20619;SDS011;10469;42.720;23.252;2024-02-21T05:00:14;16.20;;;12.13;;
20619;SDS011;10469;42.720;23.252;2024-02-21T05:02:39;16.08;;;12.10;;
20619;SDS011;10469;42.720;23.252;2024-02-21T05:05:05;16.45;;;12.35;;
20619;SDS011;10469;42.720;23.252;2024-02-21T05:07:30;17.52;;;12.70;;
20619;SDS011;10469;42.720;23.252;2024-02-21T05:09:56;16.50;;;12.65;;
20619;SDS011;10469;42.720;23.252;2024-02-21T05:12:21;17.88;;;13.68;;
20619;SDS011;10469;42.720;23.252;2024-02-21T05:14:47;16.58;;;12.90;;
20619;SDS011;10469;42.720;23.252;2024-02-21T05:17:12;16.27;;;13.30;;
20619;SDS011;10469;42.720;23.252;2024-02-21T05:19:38;19.15;;;14.00;;
20619;SDS011;10469;42.720;23.252;2024-02-21T05:22:03;16.38;;;12.80;;
20619;SDS011;10469;42.720;23.252;2024-02-21T05:24:29;17.77;;;13.48;;
20619;SDS011;10469;42.720;23.252;2024-02-21T05:26:55;17.80;;;13.05;;
20619;SDS011;10469;42.720;23.252;2024-02-21T05:29:20;14.40;;;11.43;;
20619;SDS011;10469;42.720;23.252;2024-02-21T05:34:18;16.15;;;12.02;;
20619;SDS011;10469;42.720;23.252;2024-02-21T05:36:43;15.48;;;11.63;;
20619;SDS011;10469;42.720;23.252;2024-02-21T05:39:09;13.63;;;10.68;;
20619;SDS011;10469;42.720;23.252;2024-02-21T05:41:35;16.08;;;12.07;;
20619;SDS011;10469;42.720;23.252;2024-02-21T05:44:00;17.48;;;13.02;;
20619;SDS011;10469;42.720;23.252;2024-02-21T05:46:26;15.75;;;11.00;;
20619;SDS011;10469;42.720;23.252;2024-02-21T05:48:52;16.05;;;12.18;;
20619;SDS011;10469;42.720;23.252;2024-02-21T05:51:17;17.85;;;11.90;;
20619;SDS011;10469;42.720;23.252;2024-02-21T05:53:43;15.32;;;11.75;;
20619;SDS011;10469;42.720;23.252;2024-02-21T05:56:11;19.30;;;12.13;;
20619;SDS011;10469;42.720;23.252;2024-02-21T05:58:38;17.63;;;12.80;;
20619;SDS011;10469;42.720;23.252;2024-02-21T06:01:03;15.95;;;12.43;;
20619;SDS011;10469;42.720;23.252;2024-02-21T06:03:30;18.00;;;13.68;;
20619;SDS011;10469;42.720;23.252;2024-02-21T06:05:55;17.17;;;12.38;;
20619;SDS011;10469;42.720;23.252;2024-02-21T06:08:21;20.17;;;12.25;;
20619;SDS011;10469;42.720;23.252;2024-02-21T06:10:46;19.60;;;13.88;;
20619;SDS011;10469;42.720;23.252;2024-02-21T06:13:13;25.40;;;17.02;;
20619;SDS011;10469;42.720;23.252;2024-02-21T06:15:39;22.42;;;15.23;;
20619;SDS011;10469;42.720;23.252;2024-02-21T06:18:05;23.58;;;15.35;;
20619;SDS011;10469;42.720;23.252;2024-02-21T06:20:30;19.02;;;13.50;;
20619;SDS011;10469;42.720;23.252;2024-02-21T06:22:57;24.10;;;13.55;;
20619;SDS011;10469;42.720;23.252;2024-02-21T06:25:22;18.95;;;13.93;;
20619;SDS011;10469;42.720;23.252;2024-02-21T06:27:48;21.70;;;13.27;;
20619;SDS011;10469;42.720;23.252;2024-02-21T06:30:13;19.52;;;13.52;;
20619;SDS011;10469;42.720;23.252;2024-02-21T06:32:39;18.05;;;12.23;;
20619;SDS011;10469;42.720;23.252;2024-02-21T06:35:04;22.25;;;12.10;;
20619;SDS011;10469;42.720;23.252;2024-02-21T06:37:30;19.27;;;12.43;;
20619;SDS011;10469;42.720;23.252;2024-02-21T06:39:57;19.27;;;12.43;;
20619;SDS011;10469;42.720;23.252;2024-02-21T06:42:24;16.45;;;12.25;;
20619;SDS011;10469;42.720;23.252;2024-02-21T06:44:50;15.02;;;12.98;;
20619;SDS011;10469;42.720;23.252;2024-02-21T06:47:15;25.27;;;13.38;;
20619;SDS011;10469;42.720;23.252;2024-02-21T06:49:41;18.13;;;12.65;;
20619;SDS011;10469;42.720;23.252;2024-02-21T06:52:07;16.70;;;11.48;;
20619;SDS011;10469;42.720;23.252;2024-02-21T06:54:32;23.42;;;12.85;;
20619;SDS011;10469;42.720;23.252;2024-02-21T06:56:58;20.52;;;11.95;;
20619;SDS011;10469;42.720;23.252;2024-02-21T06:59:23;17.20;;;12.48;;
20619;SDS011;10469;42.720;23.252;2024-02-21T07:01:49;17.42;;;12.23;;
20619;SDS011;10469;42.720;23.252;2024-02-21T07:04:18;19.92;;;13.60;;
20619;SDS011;10469;42.720;23.252;2024-02-21T07:06:44;24.95;;;13.75;;
20619;SDS011;10469;42.720;23.252;2024-02-21T07:09:09;23.23;;;13.23;;
20619;SDS011;10469;42.720;23.252;2024-02-21T07:11:35;22.98;;;14.20;;
20619;SDS011;10469;42.720;23.252;2024-02-21T07:14:00;19.30;;;13.18;;
20619;SDS011;10469;42.720;23.252;2024-02-21T07:16:26;24.83;;;13.45;;
20619;SDS011;10469;42.720;23.252;2024-02-21T07:18:51;24.85;;;14.10;;
20619;SDS011;10469;42.720;23.252;2024-02-21T07:21:17;26.00;;;14.35;;
20619;SDS011;10469;42.720;23.252;2024-02-21T07:23:42;23.40;;;13.13;;
20619;SDS011;10469;42.720;23.252;2024-02-21T07:26:08;19.75;;;12.60;;
20619;SDS011;10469;42.720;23.252;2024-02-21T07:28:33;20.80;;;12.98;;
20619;SDS011;10469;42.720;23.252;2024-02-21T07:30:59;20.02;;;13.23;;
20619;SDS011;10469;42.720;23.252;2024-02-21T08:59:28;17.77;;;14.10;;
20619;SDS011;10469;42.720;23.252;2024-02-21T09:01:53;24.42;;;14.63;;
20619;SDS011;10469;42.720;23.252;2024-02-21T09:04:18;26.30;;;13.60;;
20619;SDS011;10469;42.720;23.252;2024-02-21T09:06:44;18.00;;;13.60;;
20619;SDS011;10469;42.720;23.252;2024-02-21T09:09:11;21.15;;;14.45;;
20619;SDS011;10469;42.720;23.252;2024-02-21T09:11:37;19.52;;;13.50;;
20619;SDS011;10469;42.720;23.252;2024-02-21T09:14:04;19.67;;;14.55;;
20619;SDS011;10469;42.720;23.252;2024-02-21T09:16:32;25.80;;;14.70;;
20619;SDS011;10469;42.720;23.252;2024-02-21T09:18:58;18.25;;;13.88;;
20619;SDS011;10469;42.720;23.252;2024-02-21T09:21:24;23.17;;;13.88;;
20619;SDS011;10469;42.720;23.252;2024-02-21T09:23:49;20.25;;;14.20;;
20619;SDS011;10469;42.720;23.252;2024-02-21T09:26:15;16.85;;;13.60;;
20619;SDS011;10469;42.720;23.252;2024-02-21T09:28:42;15.95;;;13.10;;
20619;SDS011;10469;42.720;23.252;2024-02-21T09:31:08;16.02;;;13.43;;
20619;SDS011;10469;42.720;23.252;2024-02-21T09:33:33;14.88;;;12.70;;
20619;SDS011;10469;42.720;23.252;2024-02-21T09:35:59;19.23;;;13.18;;
20619;SDS011;10469;42.720;23.252;2024-02-21T09:38:24;18.80;;;11.15;;
20619;SDS011;10469;42.720;23.252;2024-02-21T09:41:00;17.83;;;12.98;;
20619;SDS011;10469;42.720;23.252;2024-02-21T09:43:38;18.15;;;11.05;;
20619;SDS011;10469;42.720;23.252;2024-02-21T09:46:06;19.52;;;12.23;;
20619;SDS011;10469;42.720;23.252;2024-02-21T09:48:50;17.63;;;10.93;;
20619;SDS011;10469;42.720;23.252;2024-02-21T09:51:41;18.30;;;10.50;;
20619;SDS011;10469;42.720;23.252;2024-02-21T09:54:08;13.07;;;9.75;;
20619;SDS011;10469;42.720;23.252;2024-02-21T09:56:34;13.15;;;10.88;;
20619;SDS011;10469;42.720;23.252;2024-02-21T09:59:01;15.50;;;11.05;;
20619;SDS011;10469;42.720;23.252;2024-02-21T10:01:30;13.20;;;10.10;;
20619;SDS011;10469;42.720;23.252;2024-02-21T10:03:57;23.60;;;16.40;;
20619;SDS011;10469;42.720;23.252;2024-02-21T10:06:22;14.20;;;11.30;;
20619;SDS011;10469;42.720;23.252;2024-02-21T10:08:55;13.20;;;11.05;;
20619;SDS011;10469;42.720;23.252;2024-02-21T10:11:24;13.50;;;10.30;;
20619;SDS011;10469;42.720;23.252;2024-02-21T10:13:50;10.68;;;9.02;;
20619;SDS011;10469;42.720;23.252;2024-02-21T10:16:16;9.90;;;8.90;;
20619;SDS011;10469;42.720;23.252;2024-02-21T10:18:41;10.68;;;8.45;;
20619;SDS011;10469;42.720;23.252;2024-02-21T10:21:07;11.68;;;8.63;;
20619;SDS011;10469;42.720;23.252;2024-02-21T10:23:46;10.45;;;8.57;;
20619;SDS011;10469;42.720;23.252;2024-02-21T10:26:13;11.50;;;9.07;;
20619;SDS011;10469;42.720;23.252;2024-02-21T10:28:39;9.55;;;7.43;;
20619;SDS011;10469;42.720;23.252;2024-02-21T10:31:07;9.00;;;6.40;;
20619;SDS011;10469;42.720;23.252;2024-02-21T10:33:34;8.70;;;7.78;;
20619;SDS011;10469;42.720;23.252;2024-02-21T10:36:09;12.25;;;7.32;;
20619;SDS011;10469;42.720;23.252;2024-02-21T10:38:38;8.88;;;7.20;;
20619;SDS011;10469;42.720;23.252;2024-02-21T10:41:04;12.90;;;7.57;;
20619;SDS011;10469;42.720;23.252;2024-02-21T10:43:33;8.05;;;6.75;;
20619;SDS011;10469;42.720;23.252;2024-02-21T10:46:05;6.90;;;6.20;;
20619;SDS011;10469;42.720;23.252;2024-02-21T10:48:34;14.82;;;8.50;;
20619;SDS011;10469;42.720;23.252;2024-02-21T10:51:17;7.15;;;6.05;;
20619;SDS011;10469;42.720;23.252;2024-02-21T10:54:11;7.15;;;5.13;;
20619;SDS011;10469;42.720;23.252;2024-02-21T10:56:51;9.23;;;4.82;;
20619;SDS011;10469;42.720;23.252;2024-02-21T10:59:17;7.35;;;4.90;;
20619;SDS011;10469;42.720;23.252;2024-02-21T11:01:43;6.72;;;4.75;;
20619;SDS011;10469;42.720;23.252;2024-02-21T11:04:08;7.35;;;5.65;;
20619;SDS011;10469;42.720;23.252;2024-02-21T11:06:37;5.35;;;4.85;;
20619;SDS011;10469;42.720;23.252;2024-02-21T11:09:04;5.43;;;4.80;;
20619;SDS011;10469;42.720;23.252;2024-02-21T11:11:43;8.82;;;5.07;;
20619;SDS011;10469;42.720;23.252;2024-02-21T11:14:10;7.72;;;4.90;;
20619;SDS011;10469;42.720;23.252;2024-02-21T11:16:41;12.48;;;5.53;;
20619;SDS011;10469;42.720;23.252;2024-02-21T11:19:18;5.95;;;5.18;;
20619;SDS011;10469;42.720;23.252;2024-02-21T11:21:45;7.47;;;5.15;;
20619;SDS011;10469;42.720;23.252;2024-02-21T11:24:11;6.85;;;6.03;;
20619;SDS011;10469;42.720;23.252;2024-02-21T11:26:37;8.35;;;5.22;;
20619;SDS011;10469;42.720;23.252;2024-02-21T11:29:03;15.82;;;6.65;;
20619;SDS011;10469;42.720;23.252;2024-02-21T11:31:42;6.38;;;5.15;;
20619;SDS011;10469;42.720;23.252;2024-02-21T11:34:09;5.97;;;4.93;;
20619;SDS011;10469;42.720;23.252;2024-02-21T11:36:35;7.30;;;5.13;;
20619;SDS011;10469;42.720;23.252;2024-02-21T11:39:05;10.43;;;4.80;;
20619;SDS011;10469;42.720;23.252;2024-02-21T11:41:33;7.03;;;5.55;;
20619;SDS011;10469;42.720;23.252;2024-02-21T11:43:59;8.55;;;5.13;;
20619;SDS011;10469;42.720;23.252;2024-02-21T11:46:24;6.85;;;5.68;;
20619;SDS011;10469;42.720;23.252;2024-02-21T11:48:50;7.53;;;5.93;;
20619;SDS011;10469;42.720;23.252;2024-02-21T11:51:24;9.43;;;6.35;;
20619;SDS011;10469;42.720;23.252;2024-02-21T11:53:52;13.73;;;5.97;;
20619;SDS011;10469;42.720;23.252;2024-02-21T11:56:18;6.63;;;5.55;;
20619;SDS011;10469;42.720;23.252;2024-02-21T11:58:45;8.40;;;5.80;;
20619;SDS011;10469;42.720;23.252;2024-02-21T12:01:14;9.73;;;5.60;;
20619;SDS011;10469;42.720;23.252;2024-02-21T12:03:40;7.00;;;5.72;;
20619;SDS011;10469;42.720;23.252;2024-02-21T12:06:06;6.82;;;5.53;;
20619;SDS011;10469;42.720;23.252;2024-02-21T12:08:44;8.65;;;6.18;;
20619;SDS011;10469;42.720;23.252;2024-02-21T12:11:20;6.30;;;5.28;;
20619;SDS011;10469;42.720;23.252;2024-02-21T12:14:01;8.57;;;5.35;;
20619;SDS011;10469;42.720;23.252;2024-02-21T12:16:30;7.00;;;5.80;;
20619;SDS011;10469;42.720;23.252;2024-02-21T12:18:56;6.45;;;5.45;;
20619;SDS011;10469;42.720;23.252;2024-02-21T12:21:32;9.45;;;5.65;;
20619;SDS011;10469;42.720;23.252;2024-02-21T12:26:45;9.77;;;6.72;;
20619;SDS011;10469;42.720;23.252;2024-02-21T12:29:11;13.00;;;6.20;;
20619;SDS011;10469;42.720;23.252;2024-02-21T12:31:40;10.13;;;7.32;;
20619;SDS011;10469;42.720;23.252;2024-02-21T12:34:05;12.20;;;6.47;;
20619;SDS011;10469;42.720;23.252;2024-02-21T12:36:31;9.68;;;6.50;;
20619;SDS011;10469;42.720;23.252;2024-02-21T12:38:58;11.82;;;7.00;;
20619;SDS011;10469;42.720;23.252;2024-02-21T12:41:28;7.80;;;6.60;;
20619;SDS011;10469;42.720;23.252;2024-02-21T12:43:54;8.88;;;7.38;;
20619;SDS011;10469;42.720;23.252;2024-02-21T12:46:21;13.32;;;7.97;;
20619;SDS011;10469;42.720;23.252;2024-02-21T12:48:47;11.95;;;7.78;;
20619;SDS011;10469;42.720;23.252;2024-02-21T12:51:12;12.40;;;8.43;;
20619;SDS011;10469;42.720;23.252;2024-02-21T12:53:38;10.65;;;6.35;;
20619;SDS011;10469;42.720;23.252;2024-02-21T12:56:04;8.38;;;6.05;;
20619;SDS011;10469;42.720;23.252;2024-02-21T12:58:32;6.90;;;6.20;;
20619;SDS011;10469;42.720;23.252;2024-02-21T13:00:58;8.13;;;6.55;;
20619;SDS011;10469;42.720;23.252;2024-02-21T13:03:23;17.70;;;7.32;;
20619;SDS011;10469;42.720;23.252;2024-02-21T13:05:49;10.68;;;7.25;;
20619;SDS011;10469;42.720;23.252;2024-02-21T13:08:15;13.15;;;8.20;;
20619;SDS011;10469;42.720;23.252;2024-02-21T13:10:40;9.98;;;7.78;;
20619;SDS011;10469;42.720;23.252;2024-02-21T13:13:06;11.35;;;7.63;;
20619;SDS011;10469;42.720;23.252;2024-02-21T13:15:31;10.35;;;7.45;;
20619;SDS011;10469;42.720;23.252;2024-02-21T13:17:57;11.27;;;6.72;;
20619;SDS011;10469;42.720;23.252;2024-02-21T13:20:25;8.45;;;6.65;;
20619;SDS011;10469;42.720;23.252;2024-02-21T13:22:52;7.75;;;6.25;;
20619;SDS011;10469;42.720;23.252;2024-02-21T13:25:17;10.43;;;6.18;;
20619;SDS011;10469;42.720;23.252;2024-02-21T13:27:46;12.48;;;6.38;;
20619;SDS011;10469;42.720;23.252;2024-02-21T13:30:13;9.45;;;6.18;;
20619;SDS011;10469;42.720;23.252;2024-02-21T13:32:41;10.05;;;6.80;;
20619;SDS011;10469;42.720;23.252;2024-02-21T13:35:07;8.45;;;6.88;;
20619;SDS011;10469;42.720;23.252;2024-02-21T13:37:33;10.55;;;7.40;;
20619;SDS011;10469;42.720;23.252;2024-02-21T13:39:59;15.32;;;7.25;;
20619;SDS011;10469;42.720;23.252;2024-02-21T13:42:25;11.95;;;7.18;;
20619;SDS011;10469;42.720;23.252;2024-02-21T13:44:53;10.25;;;7.28;;
20619;SDS011;10469;42.720;23.252;2024-02-21T13:47:18;12.82;;;7.50;;
20619;SDS011;10469;42.720;23.252;2024-02-21T13:49:44;10.35;;;7.38;;
20619;SDS011;10469;42.720;23.252;2024-02-21T13:52:09;9.43;;;7.35;;
20619;SDS011;10469;42.720;23.252;2024-02-21T13:54:35;15.68;;;7.57;;
20619;SDS011;10469;42.720;23.252;2024-02-21T13:57:00;7.78;;;6.90;;
20619;SDS011;10469;42.720;23.252;2024-02-21T13:59:27;8.02;;;6.68;;
20619;SDS011;10469;42.720;23.252;2024-02-21T14:01:53;11.25;;;6.68;;
20619;SDS011;10469;42.720;23.252;2024-02-21T14:04:19;11.93;;;6.25;;
20619;SDS011;10469;42.720;23.252;2024-02-21T14:06:45;9.20;;;6.65;;
20619;SDS011;10469;42.720;23.252;2024-02-21T14:09:10;12.73;;;7.03;;
20619;SDS011;10469;42.720;23.252;2024-02-21T14:11:36;8.50;;;6.78;;
20619;SDS011;10469;42.720;23.252;2024-02-21T14:14:03;10.60;;;7.22;;
20619;SDS011;10469;42.720;23.252;2024-02-21T14:16:29;9.75;;;6.97;;
20619;SDS011;10469;42.720;23.252;2024-02-21T14:18:55;14.65;;;7.18;;
20619;SDS011;10469;42.720;23.252;2024-02-21T14:21:21;12.00;;;7.35;;
20619;SDS011;10469;42.720;23.252;2024-02-21T14:23:46;11.10;;;7.20;;
20619;SDS011;10469;42.720;23.252;2024-02-21T14:26:12;12.55;;;7.25;;
20619;SDS011;10469;42.720;23.252;2024-02-21T14:28:39;12.23;;;7.47;;
20619;SDS011;10469;42.720;23.252;2024-02-21T14:31:05;13.60;;;7.63;;
20619;SDS011;10469;42.720;23.252;2024-02-21T14:33:34;13.00;;;7.75;;
20619;SDS011;10469;42.720;23.252;2024-02-21T14:36:00;13.10;;;7.10;;
20619;SDS011;10469;42.720;23.252;2024-02-21T14:38:25;10.10;;;7.05;;
20619;SDS011;10469;42.720;23.252;2024-02-21T14:40:52;13.43;;;6.90;;
20619;SDS011;10469;42.720;23.252;2024-02-21T14:43:18;9.13;;;6.88;;
20619;SDS011;10469;42.720;23.252;2024-02-21T14:45:46;8.93;;;6.47;;
20619;SDS011;10469;42.720;23.252;2024-02-21T14:48:15;12.00;;;7.38;;
20619;SDS011;10469;42.720;23.252;2024-02-21T14:50:41;10.30;;;6.88;;
20619;SDS011;10469;42.720;23.252;2024-02-21T14:53:07;12.93;;;7.15;;
20619;SDS011;10469;42.720;23.252;2024-02-21T14:55:33;12.48;;;7.55;;
20619;SDS011;10469;42.720;23.252;2024-02-21T14:57:59;10.05;;;7.88;;
20619;SDS011;10469;42.720;23.252;2024-02-21T15:02:57;17.58;;;8.77;;
20619;SDS011;10469;42.720;23.252;2024-02-21T15:05:23;11.13;;;7.65;;
20619;SDS011;10469;42.720;23.252;2024-02-21T15:07:49;10.55;;;7.80;;
20619;SDS011;10469;42.720;23.252;2024-02-21T15:10:15;12.32;;;7.55;;
20619;SDS011;10469;42.720;23.252;2024-02-21T15:12:43;12.93;;;7.38;;
20619;SDS011;10469;42.720;23.252;2024-02-21T15:15:09;10.68;;;6.93;;
20619;SDS011;10469;42.720;23.252;2024-02-21T15:17:35;10.70;;;7.25;;
20619;SDS011;10469;42.720;23.252;2024-02-21T15:20:00;13.88;;;6.68;;
20619;SDS011;10469;42.720;23.252;2024-02-21T15:22:26;10.18;;;6.97;;
20619;SDS011;10469;42.720;23.252;2024-02-21T15:24:52;15.77;;;7.72;;
20619;SDS011;10469;42.720;23.252;2024-02-21T15:27:18;14.48;;;7.68;;
20619;SDS011;10469;42.720;23.252;2024-02-21T15:29:43;20.75;;;8.50;;
20619;SDS011;10469;42.720;23.252;2024-02-21T15:32:09;11.88;;;8.98;;
20619;SDS011;10469;42.720;23.252;2024-02-21T15:34:35;15.05;;;8.77;;
20619;SDS011;10469;42.720;23.252;2024-02-21T15:37:01;13.80;;;9.35;;
20619;SDS011;10469;42.720;23.252;2024-02-21T15:39:27;11.18;;;8.25;;
20619;SDS011;10469;42.720;23.252;2024-02-21T15:41:54;15.55;;;10.27;;
20619;SDS011;10469;42.720;23.252;2024-02-21T15:44:20;13.90;;;8.70;;
20619;SDS011;10469;42.720;23.252;2024-02-21T15:46:46;20.05;;;8.60;;
20619;SDS011;10469;42.720;23.252;2024-02-21T15:49:12;14.48;;;9.07;;
20619;SDS011;10469;42.720;23.252;2024-02-21T15:51:38;13.43;;;8.10;;
20619;SDS011;10469;42.720;23.252;2024-02-21T15:54:06;11.23;;;9.02;;
20619;SDS011;10469;42.720;23.252;2024-02-21T15:56:34;12.73;;;8.45;;
20619;SDS011;10469;42.720;23.252;2024-02-21T15:59:02;15.25;;;8.98;;
20619;SDS011;10469;42.720;23.252;2024-02-21T16:01:30;15.93;;;9.50;;
20619;SDS011;10469;42.720;23.252;2024-02-21T16:03:59;12.15;;;7.57;;
20619;SDS011;10469;42.720;23.252;2024-02-21T16:06:24;8.93;;;7.80;;
20619;SDS011;10469;42.720;23.252;2024-02-21T16:08:50;15.18;;;8.80;;
20619;SDS011;10469;42.720;23.252;2024-02-21T16:11:15;13.05;;;10.10;;
20619;SDS011;10469;42.720;23.252;2024-02-21T16:13:44;13.73;;;8.90;;
20619;SDS011;10469;42.720;23.252;2024-02-21T16:16:14;15.30;;;8.20;;
20619;SDS011;10469;42.720;23.252;2024-02-21T16:18:43;14.95;;;8.40;;
20619;SDS011;10469;42.720;23.252;2024-02-21T16:21:10;17.63;;;10.65;;
20619;SDS011;10469;42.720;23.252;2024-02-21T16:23:36;15.75;;;10.57;;
20619;SDS011;10469;42.720;23.252;2024-02-21T16:26:02;12.40;;;9.13;;
20619;SDS011;10469;42.720;23.252;2024-02-21T16:28:28;18.00;;;10.00;;
20619;SDS011;10469;42.720;23.252;2024-02-21T16:30:53;11.43;;;9.82;;
20619;SDS011;10469;42.720;23.252;2024-02-21T16:33:20;13.25;;;9.05;;
20619;SDS011;10469;42.720;23.252;2024-02-21T16:35:46;12.75;;;8.63;;
20619;SDS011;10469;42.720;23.252;2024-02-21T16:38:11;13.95;;;8.93;;
20619;SDS011;10469;42.720;23.252;2024-02-21T16:40:37;21.10;;;9.45;;
20619;SDS011;10469;42.720;23.252;2024-02-21T16:43:02;17.90;;;9.45;;
20619;SDS011;10469;42.720;23.252;2024-02-21T16:45:30;15.10;;;8.77;;
20619;SDS011;10469;42.720;23.252;2024-02-21T16:47:56;15.63;;;9.95;;
20619;SDS011;10469;42.720;23.252;2024-02-21T16:50:22;14.80;;;10.00;;
20619;SDS011;10469;42.720;23.252;2024-02-21T16:52:47;19.23;;;9.50;;
20619;SDS011;10469;42.720;23.252;2024-02-21T16:55:14;16.83;;;10.73;;
20619;SDS011;10469;42.720;23.252;2024-02-21T16:57:41;18.67;;;10.75;;
20619;SDS011;10469;42.720;23.252;2024-02-21T17:00:07;23.13;;;10.25;;
20619;SDS011;10469;42.720;23.252;2024-02-21T17:02:39;16.77;;;10.35;;
20619;SDS011;10469;42.720;23.252;2024-02-21T17:05:08;14.35;;;9.93;;
20619;SDS011;10469;42.720;23.252;2024-02-21T17:07:34;17.08;;;10.93;;
20619;SDS011;10469;42.720;23.252;2024-02-21T17:10:01;27.83;;;10.77;;
20619;SDS011;10469;42.720;23.252;2024-02-21T17:12:30;15.93;;;10.10;;
20619;SDS011;10469;42.720;23.252;2024-02-21T17:14:57;15.77;;;10.32;;
20619;SDS011;10469;42.720;23.252;2024-02-21T17:17:22;16.63;;;10.57;;
20619;SDS011;10469;42.720;23.252;2024-02-21T17:19:47;19.38;;;10.32;;
20619;SDS011;10469;42.720;23.252;2024-02-21T17:22:13;14.85;;;10.02;;
20619;SDS011;10469;42.720;23.252;2024-02-21T17:24:39;13.35;;;9.80;;